Terminal Aerodrome Forecast
Issued by NWS Kansas City/Pleasant Hill, MO

Home | Current Version | Previous Version | Text Only | Print | Product List | Glossary On
Versions: 1 2 3 4 5 6 7 8 9 10 11 12 13 14 15 16 17 18 19 20 21 22 23 24
000
FTUS43 KEAX 281753 AAA
TAFMCI
TAF AMD
KMCI 281753Z 2818/2918 07005KT 5SM -DZ BR OVC008
     FM290400 08012KT P6SM OVC015
     FM290700 08013KT 5SM SHRA BR OVC008
     FM291300 08013G24KT 2SM BR VCSH OVC003
     FM291600 08014KT 2SM BR VCSH OVC003=

USA.gov is the U.S. government's official web portal to all federal, state and local government web resources and services.